createdAt,value
2023-05-09T00:34:24.659Z,19.7
2023-05-09T00:54:24.611Z,19.7
2023-05-09T01:14:24.668Z,19.7
2023-05-09T01:54:24.557Z,19.6
2023-05-09T02:14:24.525Z,19.6
2023-05-09T02:34:24.486Z,19.6
2023-05-09T02:54:24.457Z,19.6
2023-05-09T03:14:24.473Z,19.5
2023-05-09T03:34:24.422Z,19.5
2023-05-09T03:54:24.401Z,19.5
2023-05-09T04:14:24.459Z,19.5
2023-05-09T04:34:24.398Z,19.4
2023-05-09T04:54:24.412Z,19.4
2023-05-09T06:14:24.218Z,19.4
2023-05-09T06:34:24.199Z,19.4
2023-05-09T08:14:24.065Z,19.4
2023-05-09T08:34:24.099Z,19.4
2023-05-09T08:54:24.094Z,19.4
2023-05-09T09:14:23.989Z,19.4
2023-05-09T09:34:23.984Z,19.4
2023-05-09T09:54:23.965Z,19.4
2023-05-09T10:14:23.927Z,19.4
2023-05-09T10:34:24.062Z,19.4
2023-05-09T10:54:24.049Z,19.4
2023-05-09T11:54:23.863Z,19.4
2023-05-09T12:14:23.789Z,19.4
2023-05-09T12:34:23.763Z,19.4
2023-05-09T12:54:23.869Z,19.5
2023-05-09T13:14:23.779Z,19.4
2023-05-09T13:34:23.685Z,19.5
2023-05-09T13:54:23.693Z,19.5
2023-05-09T14:14:23.609Z,19.6
2023-05-09T14:34:23.586Z,19.7
2023-05-09T14:54:23.562Z,19.8
2023-05-09T15:14:23.574Z,19.8
2023-05-09T16:34:23.437Z,20.2
2023-05-09T16:54:23.416Z,20.1
2023-05-09T17:14:23.391Z,20.1
2023-05-09T17:34:23.371Z,20.1
2023-05-09T17:54:23.338Z,20.0
2023-05-09T18:14:23.472Z,20.0
2023-05-09T18:28:23.055Z,20.5
2023-05-09T18:48:23.047Z,21.4
2023-05-09T19:08:23.122Z,22.0
2023-05-09T19:28:23.047Z,22.1
2023-05-09T19:48:23.019Z,22.1
2023-05-09T20:08:22.900Z,22.1
2023-05-09T20:28:22.985Z,22.1
2023-05-09T20:48:22.876Z,22.1
2023-05-09T21:08:22.837Z,22.1
2023-05-09T21:28:22.801Z,22.0
2023-05-09T21:48:22.773Z,22.0
2023-05-09T22:08:22.762Z,22.0
2023-05-09T22:28:22.790Z,22.0
2023-05-09T22:48:22.706Z,21.9
2023-05-09T23:08:22.699Z,21.9
2023-05-09T23:28:22.671Z,21.9
2023-05-09T23:48:22.624Z,21.9
